Time;durP1;ratioP1;P1;durP2;ratioP2;P2;SDS_P1;SDS_P2;PMS_P1;PMS_P2;Temp;Humidity;BMP_temperature;BMP_pressure;BME280_temperature;BME280_humidity;BME280_pressure;Samples;Min_cycle;Max_cycle;Signal;HPM_P1;HPM_P2
2022/01/22 00:01:00;;;;;;;3.08;1.92;;;7.90;96.00;;;;;;5056017;28;20079;-48
2022/01/22 00:03:26;;;;;;;2.97;1.80;;;7.80;95.90;;;;;;5058360;28;20040;-48
2022/01/22 00:05:51;;;;;;;4.45;1.90;;;7.90;95.90;;;;;;5053595;28;20029;-48
2022/01/22 00:08:17;;;;;;;3.25;1.90;;;7.80;95.90;;;;;;5061514;28;20043;-48
2022/01/22 00:10:44;;;;;;;4.43;1.90;;;7.90;96.00;;;;;;5060898;28;20079;-48
2022/01/22 00:15:48;;;;;;;5.57;1.95;;;7.80;96.00;;;;;;5056047;28;20357;-48
2022/01/22 00:18:14;;;;;;;3.17;1.55;;;7.80;96.00;;;;;;5057894;28;20029;-48
2022/01/22 00:20:39;;;;;;;8.60;2.30;;;7.80;96.00;;;;;;5059978;28;20107;-48
2022/01/22 00:23:06;;;;;;;3.25;1.50;;;7.90;96.00;;;;;;5058102;28;20043;-48
2022/01/22 00:25:32;;;;;;;4.00;2.25;;;7.80;96.00;;;;;;5058722;28;20021;-48
2022/01/22 00:28:00;;;;;;;3.35;2.10;;;7.90;96.00;;;;;;5061005;28;20029;-48
2022/01/22 00:30:27;;;;;;;2.28;1.48;;;7.80;96.00;;;;;;5058963;28;20079;-48
2022/01/22 00:32:53;;;;;;;10.18;2.25;;;7.80;96.00;;;;;;5055337;28;20033;-48
2022/01/22 00:35:21;;;;;;;5.75;2.00;;;7.80;96.00;;;;;;5058953;28;20032;-48
2022/01/22 00:37:48;;;;;;;4.30;1.70;;;7.80;96.00;;;;;;5057391;28;20031;-48
2022/01/22 00:40:16;;;;;;;2.03;1.23;;;7.90;96.00;;;;;;5053966;28;20025;-48
2022/01/22 00:42:43;;;;;;;1.60;1.23;;;7.90;96.00;;;;;;5062969;28;20361;-48
2022/01/22 00:45:10;;;;;;;2.63;1.55;;;7.80;96.00;;;;;;5062995;28;20376;-48
2022/01/22 00:47:35;;;;;;;2.78;1.75;;;7.80;96.00;;;;;;5059174;28;20479;-48
2022/01/22 00:50:02;;;;;;;4.85;2.00;;;7.80;95.90;;;;;;5062609;28;20069;-49
2022/01/22 00:52:28;;;;;;;6.30;1.00;;;7.80;96.00;;;;;;5058730;28;20029;-48
2022/01/22 00:54:53;;;;;;;3.10;1.80;;;7.80;96.00;;;;;;5065027;28;20025;-48
2022/01/22 00:57:19;;;;;;;6.78;2.03;;;7.80;96.00;;;;;;5057953;28;20438;-48
2022/01/22 00:59:45;;;;;;;4.70;1.95;;;7.80;96.00;;;;;;5064687;28;20025;-48
2022/01/22 01:02:10;;;;;;;1.30;1.20;;;7.80;96.00;;;;;;5056621;28;20441;-48
2022/01/22 01:04:37;;;;;;;5.25;1.60;;;7.80;96.00;;;;;;5056480;28;20123;-48
2022/01/22 01:07:04;;;;;;;5.07;1.45;;;7.80;96.00;;;;;;5064725;28;20070;-48
2022/01/22 01:09:30;;;;;;;4.18;1.75;;;7.80;96.10;;;;;;5058161;28;20082;-48
2022/01/22 01:12:01;;;;;;;4.95;2.17;;;7.80;96.00;;;;;;5060555;28;20025;-49
2022/01/22 01:14:36;;;;;;;;;;;7.80;96.00;;;;;;5064929;28;20442;-48
2022/01/22 01:35:37;;;;;;;3.63;1.80;;;7.80;96.00;;;;;;5062278;28;20029;-48
2022/01/22 01:38:04;;;;;;;5.13;1.90;;;7.80;96.00;;;;;;5062064;28;20079;-48
2022/01/22 01:40:31;;;;;;;3.67;1.95;;;7.80;96.00;;;;;;5060574;28;20102;-48
2022/01/22 01:45:23;;;;;;;3.22;1.92;;;7.90;96.00;;;;;;5063472;28;20538;-48
2022/01/22 01:47:58;;;;;;;2.42;1.63;;;7.90;96.00;;;;;;5059597;28;20020;-48
2022/01/22 01:50:23;;;;;;;4.38;2.00;;;7.80;96.00;;;;;;5060972;28;20049;-49
2022/01/22 01:55:47;;;;;;;3.65;1.88;;;7.90;96.10;;;;;;5064210;28;20058;-48
2022/01/22 01:58:14;;;;;;;1.88;1.58;;;7.80;96.10;;;;;;5058438;28;20044;-48
2022/01/22 02:00:40;;;;;;;2.97;1.35;;;7.80;96.10;;;;;;5064047;28;20020;-49
2022/01/22 02:03:06;;;;;;;1.73;1.40;;;7.80;96.10;;;;;;5054858;28;20372;-49
2022/01/22 02:05:34;;;;;;;3.17;1.70;;;7.80;96.10;;;;;;5061181;28;20093;-48
2022/01/22 02:07:59;;;;;;;5.20;1.45;;;7.90;96.10;;;;;;5062076;28;20106;-49
2022/01/22 02:10:28;;;;;;;4.00;1.70;;;7.90;96.10;;;;;;5060098;28;20517;-48
2022/01/22 02:23:45;;;;;;;1.98;1.42;;;7.90;96.20;;;;;;5062875;28;20697;-48
2022/01/22 02:26:13;;;;;;;5.57;1.35;;;7.90;96.20;;;;;;5062004;28;20028;-48
2022/01/22 02:28:41;;;;;;;1.67;1.42;;;7.90;96.20;;;;;;5060952;28;20442;-48
2022/01/22 02:32:02;;;;;;;3.15;2.05;;;7.80;96.20;;;;;;5059080;28;20423;-49
2022/01/22 02:36:31;;;;;;;3.60;1.50;;;7.80;96.60;;;;;;5060287;28;20264;-48
2022/01/22 02:39:09;;;;;;;1.42;1.27;;;7.90;96.30;;;;;;5061713;28;20033;-48
2022/01/22 02:41:37;;;;;;;3.50;1.55;;;7.80;96.30;;;;;;5056885;28;20025;-48
2022/01/22 02:44:03;;;;;;;2.33;1.60;;;7.80;96.30;;;;;;5060544;28;20033;-48
2022/01/22 02:46:31;;;;;;;4.43;1.33;;;7.80;96.30;;;;;;5060244;28;20071;-48
2022/01/22 02:48:56;;;;;;;2.92;1.63;;;7.90;96.40;;;;;;5057912;28;20390;-48
2022/01/22 02:51:24;;;;;;;1.90;1.42;;;7.90;96.40;;;;;;5056560;28;20041;-48
2022/01/22 02:53:54;;;;;;;2.60;1.60;;;7.80;96.40;;;;;;5059142;28;20075;-48
2022/01/22 02:56:21;;;;;;;8.30;1.52;;;7.90;96.40;;;;;;5062450;28;20458;-48
2022/01/22 02:58:47;;;;;;;1.88;1.20;;;7.90;96.40;;;;;;5057603;28;20388;-48
2022/01/22 03:01:16;;;;;;;4.18;2.05;;;7.80;96.40;;;;;;5061719;28;20035;-49
2022/01/22 03:03:42;;;;;;;1.90;1.30;;;7.90;96.40;;;;;;5054584;28;20516;-48
2022/01/22 03:06:08;;;;;;;4.82;1.45;;;7.80;96.40;;;;;;5060692;28;20472;-48
2022/01/22 03:08:33;;;;;;;1.63;1.23;;;7.80;96.40;;;;;;5057570;28;20028;-48
2022/01/22 03:11:04;;;;;;;2.97;1.92;;;7.90;96.50;;;;;;5062179;28;20035;-49
2022/01/22 03:21:40;;;;;;;2.50;1.50;;;7.90;96.50;;;;;;5058547;28;20025;-48
2022/01/22 03:29:39;;;;;;;1.15;1.00;;;7.80;96.50;;;;;;5062705;28;20164;-49
2022/01/22 03:32:06;;;;;;;1.75;1.42;;;7.80;96.60;;;;;;5057509;28;20454;-48
2022/01/22 03:34:39;;;;;;;1.38;1.27;;;7.80;96.50;;;;;;5060213;28;20271;-48
2022/01/22 03:37:05;;;;;;;1.58;1.20;;;7.80;96.50;;;;;;5059780;28;20021;-48
2022/01/22 03:39:31;;;;;;;1.52;1.05;;;7.80;96.60;;;;;;5058625;28;20331;-48
2022/01/22 03:41:56;;;;;;;1.70;1.20;;;7.80;96.60;;;;;;5057761;28;20037;-49
2022/01/22 03:44:22;;;;;;;1.70;1.33;;;7.80;96.60;;;;;;5059879;28;20055;-48
2022/01/22 03:46:48;;;;;;;4.97;1.33;;;7.80;96.60;;;;;;5061913;28;20039;-48
2022/01/22 03:49:16;;;;;;;3.08;1.15;;;7.80;96.60;;;;;;5053980;28;20029;-48
2022/01/22 03:51:43;;;;;;;2.20;1.20;;;7.80;96.60;;;;;;5058435;28;20461;-48
2022/01/22 03:54:08;;;;;;;3.83;2.95;;;7.90;96.60;;;;;;5061156;28;20028;-48
2022/01/22 03:56:34;;;;;;;0.80;0.80;;;7.90;96.60;;;;;;5061853;28;20356;-48
2022/01/22 03:59:02;;;;;;;4.75;1.95;;;7.80;96.60;;;;;;5059604;28;20067;-48
2022/01/22 04:04:01;;;;;;;1.00;0.88;;;7.80;96.60;;;;;;5053649;28;20028;-48
2022/01/22 04:09:00;;;;;;;3.00;1.40;;;7.80;96.70;;;;;;5054725;28;20052;-49
2022/01/22 04:11:26;;;;;;;1.30;1.15;;;7.80;96.60;;;;;;5060515;28;20059;-48
2022/01/22 04:13:58;;;;;;;1.73;1.08;;;7.80;96.70;;;;;;5060787;28;20052;-48
2022/01/22 04:16:23;;;;;;;3.75;1.40;;;7.90;96.70;;;;;;5058005;28;20104;-48
2022/01/22 04:27:13;;;;;;;1.55;1.45;;;7.80;96.80;;;;;;5063267;28;20071;-49
2022/01/22 04:29:39;;;;;;;1.45;1.35;;;7.80;96.80;;;;;;5061472;28;20116;-49
2022/01/22 04:32:06;;;;;;;3.38;1.85;;;7.80;96.70;;;;;;5058692;28;20029;-48
2022/01/22 04:34:32;;;;;;;2.20;1.38;;;7.90;96.80;;;;;;5059651;28;20036;-48
2022/01/22 04:36:58;;;;;;;4.25;2.10;;;7.80;96.80;;;;;;5061367;28;20450;-48
2022/01/22 04:39:26;;;;;;;5.82;1.50;;;7.90;96.80;;;;;;5059488;28;20086;-48
2022/01/22 04:41:54;;;;;;;2.65;1.52;;;7.90;96.80;;;;;;5059965;28;20040;-48
2022/01/22 04:44:20;;;;;;;1.98;1.50;;;7.80;96.70;;;;;;5065104;28;20024;-48
2022/01/22 04:46:57;;;;;;;9.13;2.20;;;7.80;96.80;;;;;;5063971;28;20029;-48
2022/01/22 04:57:17;;;;;;;4.25;1.95;;;7.80;96.80;;;;;;5064746;28;20078;-48
2022/01/22 04:59:43;;;;;;;3.53;1.77;;;7.80;96.80;;;;;;5062455;28;20033;-48
2022/01/22 05:02:09;;;;;;;7.22;2.20;;;7.80;96.80;;;;;;5062063;28;20116;-48
2022/01/22 05:04:35;;;;;;;2.58;1.95;;;7.90;96.80;;;;;;5056811;28;20310;-48
2022/01/22 05:07:01;;;;;;;2.90;1.65;;;7.90;96.80;;;;;;5062877;28;20086;-48
2022/01/22 05:09:26;;;;;;;2.75;1.70;;;7.80;96.80;;;;;;5060612;28;20043;-48
2022/01/22 05:11:52;;;;;;;6.72;1.92;;;7.80;96.90;;;;;;5060789;28;20028;-48
2022/01/22 05:14:18;;;;;;;3.47;1.35;;;7.80;96.90;;;;;;5064274;28;20074;-49
2022/01/22 05:16:43;;;;;;;3.72;2.28;;;7.90;96.90;;;;;;5064255;28;20016;-48
2022/01/22 05:19:15;;;;;;;3.25;1.92;;;7.80;96.90;;;;;;5058007;28;20040;-48
2022/01/22 05:21:42;;;;;;;4.05;2.38;;;7.80;96.90;;;;;;5057251;28;20029;-48
2022/01/22 05:24:12;;;;;;;2.45;1.50;;;7.80;96.90;;;;;;5063300;28;20024;-48
2022/01/22 05:32:04;;;;;;;2.00;1.77;;;7.90;96.90;;;;;;5060132;28;20032;-48
2022/01/22 05:37:11;;;;;;;3.20;1.75;;;7.90;97.30;;;;;;5064201;28;20090;-48
2022/01/22 05:39:37;;;;;;;5.43;2.38;;;7.90;96.90;;;;;;5061922;28;20033;-49
2022/01/22 05:42:06;;;;;;;2.55;1.95;;;7.90;96.90;;;;;;5059425;28;20077;-48
2022/01/22 05:44:32;;;;;;;3.47;1.75;;;7.90;97.00;;;;;;5062006;28;20036;-48
2022/01/22 05:47:03;;;;;;;5.07;2.33;;;7.90;97.30;;;;;;5063582;28;20111;-49
2022/01/22 05:49:31;;;;;;;3.08;2.20;;;7.90;96.90;;;;;;5056848;28;20044;-48
2022/01/22 05:51:59;;;;;;;2.78;1.83;;;7.90;97.00;;;;;;5061589;28;20028;-48
2022/01/22 05:59:39;;;;;;;5.65;2.58;;;7.80;96.90;;;;;;5062333;28;20796;-49
2022/01/22 06:02:17;;;;;;;3.88;2.00;;;7.80;96.90;;;;;;5061346;28;20025;-48
2022/01/22 06:04:44;;;;;;;5.20;2.80;;;7.90;97.00;;;;;;5056923;28;20486;-48
2022/01/22 06:07:11;;;;;;;2.17;1.60;;;7.90;97.00;;;;;;5061453;28;20162;-49
2022/01/22 06:09:43;;;;;;;3.40;2.25;;;7.90;97.00;;;;;;5063596;28;20032;-49
2022/01/22 06:14:38;;;;;;;4.20;2.38;;;7.80;96.80;;;;;;5057577;28;20438;-48
2022/01/22 06:17:04;;;;;;;3.08;1.75;;;7.80;96.90;;;;;;5063405;28;20028;-48
2022/01/22 06:19:29;;;;;;;4.03;2.47;;;7.80;96.90;;;;;;5055825;28;20499;-48
2022/01/22 06:21:56;;;;;;;6.72;2.63;;;7.80;96.90;;;;;;5061542;28;20229;-48
2022/01/22 06:24:22;;;;;;;4.88;2.30;;;7.90;97.00;;;;;;5057790;28;20021;-48
2022/01/22 06:26:49;;;;;;;3.40;2.28;;;7.90;97.00;;;;;;5062922;28;20158;-48
2022/01/22 06:29:15;;;;;;;3.53;2.33;;;7.90;97.00;;;;;;5059857;28;20075;-48
2022/01/22 06:31:41;;;;;;;6.68;1.90;;;7.90;96.90;;;;;;5062304;28;20220;-48
2022/01/22 06:34:07;;;;;;;3.13;2.65;;;7.90;97.00;;;;;;5057034;28;20378;-48
2022/01/22 06:36:33;;;;;;;8.60;2.55;;;7.90;97.00;;;;;;5058543;28;20457;-48
2022/01/22 06:39:11;;;;;;;6.38;2.97;;;7.90;96.90;;;;;;5059964;28;20028;-48
2022/01/22 06:41:46;;;;;;;6.43;2.95;;;7.90;97.00;;;;;;5059988;28;20025;-48
2022/01/22 06:44:15;;;;;;;5.07;3.22;;;7.90;97.00;;;;;;5061886;28;20024;-48
2022/01/22 06:46:44;;;;;;;4.75;2.75;;;7.90;97.00;;;;;;5058357;28;20025;-48
2022/01/22 06:49:10;;;;;;;4.28;2.88;;;7.90;97.00;;;;;;5059083;28;20033;-48
2022/01/22 06:51:36;;;;;;;3.83;2.75;;;7.90;97.00;;;;;;5058381;28;20043;-48
2022/01/22 06:54:03;;;;;;;5.13;3.35;;;7.90;96.90;;;;;;5062516;28;20026;-48
2022/01/22 06:56:30;;;;;;;5.15;2.47;;;7.90;97.00;;;;;;5057069;28;20469;-48
2022/01/22 06:58:57;;;;;;;6.53;2.83;;;7.90;97.00;;;;;;5062440;28;20397;-48
2022/01/22 07:01:24;;;;;;;6.90;2.55;;;7.80;96.90;;;;;;5054855;28;20111;-48
2022/01/22 07:03:49;;;;;;;4.65;2.47;;;7.80;96.90;;;;;;5057444;28;20136;-48
2022/01/22 07:06:15;;;;;;;1.90;1.70;;;7.90;97.30;;;;;;5055715;28;20115;-48
2022/01/22 07:08:41;;;;;;;4.82;2.33;;;7.90;97.00;;;;;;5056407;28;20032;-48
2022/01/22 07:11:07;;;;;;;7.22;3.35;;;7.80;96.90;;;;;;5057909;28;20021;-48
2022/01/22 07:13:33;;;;;;;4.90;2.47;;;7.90;97.00;;;;;;5061570;28;20107;-48
2022/01/22 07:15:59;;;;;;;4.82;2.38;;;7.90;97.00;;;;;;5062162;28;20035;-48
2022/01/22 07:18:24;;;;;;;4.15;2.30;;;7.90;97.00;;;;;;5060060;28;20021;-48
2022/01/22 07:20:51;;;;;;;5.95;2.17;;;7.90;97.00;;;;;;5059221;28;20075;-48
2022/01/22 07:26:06;;;;;;;7.55;2.90;;;7.90;97.00;;;;;;5054704;28;20032;-48
2022/01/22 07:28:32;;;;;;;6.13;3.03;;;7.90;97.00;;;;;;5060420;28;20157;-48
2022/01/22 07:31:00;;;;;;;12.02;3.08;;;7.90;97.00;;;;;;5057218;28;20062;-48
2022/01/22 07:33:26;;;;;;;4.03;2.33;;;7.90;97.00;;;;;;5063361;28;20099;-48
2022/01/22 07:35:53;;;;;;;4.78;2.50;;;7.90;97.00;;;;;;5066323;28;20041;-48
2022/01/22 07:38:19;;;;;;;7.55;2.70;;;7.90;97.00;;;;;;5068955;28;20048;-49
2022/01/22 07:40:45;;;;;;;3.65;2.20;;;7.90;96.90;;;;;;5070928;28;20097;-50
2022/01/22 07:43:10;;;;;;;5.97;2.00;;;7.90;96.40;;;;;;5069305;28;20437;-49
2022/01/22 07:45:37;;;;;;;5.13;2.67;;;7.80;95.70;;;;;;5070125;28;20107;-49
2022/01/22 07:48:03;;;;;;;4.15;2.72;;;7.80;95.20;;;;;;5070108;28;20126;-49
2022/01/22 07:50:28;;;;;;;4.00;2.58;;;7.80;95.00;;;;;;5061955;28;20029;-49
2022/01/22 07:52:54;;;;;;;3.63;2.40;;;7.80;94.60;;;;;;5056643;28;20373;-49
2022/01/22 07:55:22;;;;;;;5.72;2.95;;;7.70;94.10;;;;;;5055292;28;20024;-50
2022/01/22 07:57:47;;;;;;;8.30;2.88;;;7.70;93.90;;;;;;5061666;28;20044;-49
2022/01/22 08:00:16;;;;;;;4.90;2.78;;;7.70;93.90;;;;;;5056317;28;20361;-49
2022/01/22 08:02:42;;;;;;;6.95;3.33;;;7.70;94.00;;;;;;5053140;28;20036;-48
2022/01/22 08:05:08;;;;;;;8.45;3.42;;;7.60;94.20;;;;;;5057255;28;20370;-48
2022/01/22 08:07:34;;;;;;;6.07;3.20;;;7.70;94.20;;;;;;5055950;28;20025;-49
2022/01/22 08:09:59;;;;;;;5.68;3.65;;;7.70;94.30;;;;;;5056940;28;20037;-48
2022/01/22 08:12:26;;;;;;;4.90;3.47;;;7.70;94.20;;;;;;5059167;28;20036;-49
2022/01/22 08:14:51;;;;;;;7.28;3.53;;;7.80;94.20;;;;;;5059611;28;20074;-49
2022/01/22 08:17:17;;;;;;;6.35;3.45;;;7.80;94.20;;;;;;5058420;28;20037;-48
2022/01/22 08:19:42;;;;;;;3.97;2.63;;;7.80;94.20;;;;;;5059467;28;20024;-49
2022/01/22 08:22:08;;;;;;;7.00;3.65;;;7.80;94.30;;;;;;5055108;28;20016;-48
2022/01/22 08:24:34;;;;;;;5.63;2.85;;;7.80;94.30;;;;;;5057333;28;20033;-49
2022/01/22 08:27:13;;;;;;;4.70;2.65;;;7.80;94.30;;;;;;5059305;28;20484;-48
2022/01/22 08:29:39;;;;;;;5.78;3.30;;;7.70;94.30;;;;;;5054375;28;20033;-48
2022/01/22 08:37:28;;;;;;;6.93;3.20;;;7.80;94.50;;;;;;5060073;28;20466;-49
2022/01/22 08:39:54;;;;;;;10.07;4.18;;;7.80;94.50;;;;;;5060034;28;20103;-49
2022/01/22 08:42:20;;;;;;;7.18;4.10;;;7.80;94.70;;;;;;5056430;28;20074;-49
2022/01/22 08:44:47;;;;;;;7.68;3.45;;;7.80;94.70;;;;;;5060206;28;20037;-49
2022/01/22 08:47:13;;;;;;;8.38;3.60;;;7.80;94.70;;;;;;5060549;28;20032;-49
2022/01/22 08:49:39;;;;;;;6.22;3.75;;;7.80;94.70;;;;;;5059254;28;20401;-49
2022/01/22 08:52:11;;;;;;;7.05;4.00;;;7.80;94.70;;;;;;5048095;28;20035;-49
2022/01/22 08:54:37;;;;;;;5.03;3.10;;;7.80;94.70;;;;;;5059847;28;20033;-49
2022/01/22 08:57:03;;;;;;;8.65;3.20;;;7.80;94.80;;;;;;5059607;28;20033;-50
2022/01/22 08:59:28;;;;;;;12.90;4.10;;;7.80;94.80;;;;;;5061698;28;20021;-49
2022/01/22 09:01:54;;;;;;;5.18;3.03;;;7.80;94.90;;;;;;5054829;28;20052;-50
2022/01/22 09:04:20;;;;;;;8.50;3.05;;;7.80;94.90;;;;;;5056490;28;20040;-49
2022/01/22 09:06:45;;;;;;;7.28;3.38;;;7.80;95.00;;;;;;5060362;28;20371;-50
2022/01/22 09:09:12;;;;;;;5.55;3.05;;;7.80;95.00;;;;;;5061921;28;20028;-50
2022/01/22 09:11:40;;;;;;;9.75;3.25;;;7.80;95.10;;;;;;5062558;28;20041;-50
2022/01/22 09:14:08;;;;;;;10.05;3.25;;;7.80;95.10;;;;;;5063059;28;20039;-49
2022/01/22 09:16:36;;;;;;;6.32;3.20;;;7.90;95.20;;;;;;5062497;28;20029;-49
2022/01/22 09:19:06;;;;;;;6.22;2.88;;;7.90;95.30;;;;;;5062428;28;20048;-49
2022/01/22 09:21:33;;;;;;;6.50;2.92;;;7.90;95.30;;;;;;5058018;28;20079;-49
2022/01/22 09:23:58;;;;;;;9.82;2.10;;;7.90;95.30;;;;;;5059592;28;20123;-49
2022/01/22 09:26:24;;;;;;;3.92;2.80;;;7.90;95.30;;;;;;5063294;28;20119;-49
2022/01/22 09:28:50;;;;;;;10.38;3.28;;;7.90;95.40;;;;;;5062520;28;20104;-49
2022/01/22 09:31:16;;;;;;;5.80;2.67;;;7.90;95.40;;;;;;5061548;28;20157;-49
2022/01/22 09:33:43;;;;;;;10.75;3.17;;;7.80;95.50;;;;;;5062604;28;20595;-49
2022/01/22 09:36:09;;;;;;;4.10;2.33;;;7.90;95.60;;;;;;5055517;28;20033;-50
2022/01/22 09:38:35;;;;;;;7.22;3.30;;;7.90;95.50;;;;;;5063955;28;20097;-49
2022/01/22 09:41:00;;;;;;;4.20;3.20;;;7.90;95.60;;;;;;5060732;28;20016;-49
2022/01/22 09:43:26;;;;;;;7.13;3.13;;;7.90;95.60;;;;;;5059571;28;20407;-49
2022/01/22 09:45:52;;;;;;;5.68;2.58;;;7.90;95.60;;;;;;5062510;28;20025;-49
2022/01/22 09:48:17;;;;;;;6.05;2.90;;;7.90;95.60;;;;;;5061841;28;20021;-49
2022/01/22 09:50:43;;;;;;;7.45;2.90;;;7.90;95.70;;;;;;5059407;28;20370;-49
2022/01/22 09:53:08;;;;;;;5.63;3.03;;;7.90;95.70;;;;;;5058306;28;20032;-49
2022/01/22 09:55:34;;;;;;;9.55;3.38;;;7.90;95.70;;;;;;5064010;28;20354;-49
2022/01/22 09:58:00;;;;;;;10.85;3.80;;;7.90;95.80;;;;;;5061497;28;20389;-49
2022/01/22 10:00:26;;;;;;;7.28;3.42;;;7.90;95.80;;;;;;5062753;28;20020;-49
2022/01/22 10:02:55;;;;;;;6.63;3.63;;;7.90;95.80;;;;;;5060960;28;20108;-49
2022/01/22 10:05:39;;;;;;;9.65;3.58;;;7.90;95.90;;;;;;5061032;28;20068;-50
2022/01/22 10:08:17;;;;;;;7.07;3.40;;;7.90;95.90;;;;;;5062179;28;20033;-49
2022/01/22 10:10:43;;;;;;;8.15;3.70;;;7.90;95.90;;;;;;5061729;28;20037;-49
2022/01/22 10:13:09;;;;;;;5.50;3.28;;;7.90;96.00;;;;;;5058846;28;20379;-49
2022/01/22 10:15:35;;;;;;;5.07;3.53;;;7.90;96.00;;;;;;5059957;28;20036;-49
2022/01/22 10:18:02;;;;;;;7.38;2.70;;;7.90;96.10;;;;;;5061876;28;20029;-49
2022/01/22 10:20:37;;;;;;;6.93;3.30;;;7.90;96.10;;;;;;5061736;28;20115;-50
2022/01/22 10:23:15;;;;;;;5.05;2.53;;;7.90;96.10;;;;;;5059409;28;20683;-50
2022/01/22 10:25:47;;;;;;;11.85;2.97;;;7.90;96.10;;;;;;5061172;28;20040;-49
2022/01/22 10:28:27;;;;;;;4.22;2.30;;;7.90;96.10;;;;;;5060132;28;20339;-49
2022/01/22 10:30:58;;;;;;;6.07;2.28;;;7.90;96.20;;;;;;5063293;28;20390;-49
2022/01/22 10:33:28;;;;;;;5.20;2.78;;;7.90;96.20;;;;;;5057651;28;20113;-49
2022/01/22 10:36:12;;;;;;;7.88;2.03;;;7.90;96.30;;;;;;5059133;28;20381;-50
2022/01/22 10:38:59;;;;;;;5.63;2.13;;;8.00;96.30;;;;;;5062725;28;20405;-50
2022/01/22 10:41:36;;;;;;;6.07;2.88;;;8.00;96.30;;;;;;5062631;28;20032;-49
2022/01/22 10:44:03;;;;;;;6.07;2.75;;;7.90;96.20;;;;;;5062548;28;20446;-49
2022/01/22 10:46:51;;;;;;;7.70;2.63;;;8.00;96.30;;;;;;5060389;28;20036;-49
2022/01/22 10:49:24;;;;;;;5.60;1.73;;;8.00;96.30;;;;;;5060929;28;20043;-49
2022/01/22 10:51:52;;;;;;;3.80;2.40;;;8.00;96.30;;;;;;5053896;28;20466;-49
2022/01/22 10:54:26;;;;;;;5.25;2.72;;;8.00;96.20;;;;;;5062340;28;20415;-50
2022/01/22 10:56:53;;;;;;;4.07;2.50;;;8.00;96.30;;;;;;5062380;28;20024;-49
2022/01/22 10:59:21;;;;;;;5.45;1.88;;;8.00;96.30;;;;;;5061653;28;20079;-49
2022/01/22 11:01:59;;;;;;;5.47;2.70;;;8.00;96.30;;;;;;5059719;28;20064;-49
2022/01/22 11:04:29;;;;;;;7.25;2.45;;;8.00;96.40;;;;;;5056921;28;20421;-49
2022/01/22 11:07:03;;;;;;;6.00;2.78;;;8.00;96.40;;;;;;5055107;28;20037;-49
2022/01/22 11:09:30;;;;;;;5.00;2.75;;;8.00;96.40;;;;;;5062485;28;20024;-49
2022/01/22 11:12:00;;;;;;;3.60;2.33;;;8.00;96.40;;;;;;5058502;28;20029;-49
2022/01/22 11:14:29;;;;;;;3.70;2.38;;;8.00;96.40;;;;;;5058920;28;20044;-50
2022/01/22 11:16:55;;;;;;;5.18;2.58;;;8.00;96.50;;;;;;5060027;28;20025;-50
2022/01/22 11:19:23;;;;;;;4.30;2.47;;;8.00;96.50;;;;;;5062428;28;20039;-49
2022/01/22 11:21:52;;;;;;;4.65;2.17;;;8.00;96.50;;;;;;5052171;28;20060;-49
2022/01/22 11:24:25;;;;;;;2.72;1.75;;;8.00;96.60;;;;;;5060257;28;20021;-49
2022/01/22 11:26:53;;;;;;;4.43;1.90;;;8.00;96.60;;;;;;5050696;28;20036;-50
2022/01/22 11:29:23;;;;;;;4.22;2.15;;;8.00;96.60;;;;;;5060484;28;20036;-50
2022/01/22 11:31:50;;;;;;;5.60;2.15;;;8.00;96.60;;;;;;5067393;28;20066;-50
2022/01/22 11:34:19;;;;;;;9.63;3.60;;;8.00;96.60;;;;;;5070343;28;20063;-50
2022/01/22 11:36:57;;;;;;;5.68;3.00;;;8.10;96.60;;;;;;5064297;28;20468;-50
2022/01/22 11:39:25;;;;;;;11.68;3.75;;;8.00;96.60;;;;;;5069938;28;20070;-49
2022/01/22 11:41:57;;;;;;;10.80;3.92;;;8.00;96.60;;;;;;5068564;28;20025;-50
2022/01/22 11:44:39;;;;;;;7.05;3.47;;;8.00;96.60;;;;;;5073935;28;20033;-49
2022/01/22 11:47:17;;;;;;;16.70;3.67;;;8.00;96.60;;;;;;5066616;28;20457;-49
2022/01/22 11:50:21;;;;;;;13.25;4.22;;;8.00;96.70;;;;;;5069999;28;20507;-49
2022/01/22 11:52:47;;;;;;;7.10;3.20;;;8.00;96.70;;;;;;5077502;28;20045;-49
2022/01/22 11:55:15;;;;;;;6.68;3.28;;;8.10;96.70;;;;;;5084351;28;20094;-50
2022/01/22 11:57:43;;;;;;;6.55;3.15;;;8.00;96.70;;;;;;5081288;28;20016;-49
2022/01/22 12:00:17;;;;;;;4.28;2.28;;;8.10;96.70;;;;;;5074983;28;20032;-49
2022/01/22 12:02:42;;;;;;;4.15;2.45;;;8.10;96.70;;;;;;5074931;28;20257;-49
2022/01/22 12:05:09;;;;;;;6.88;3.08;;;8.10;96.70;;;;;;5085379;28;20023;-49
2022/01/22 12:07:36;;;;;;;19.20;5.18;;;8.10;96.70;;;;;;5087775;28;20155;-50
2022/01/22 12:10:21;;;;;;;17.48;4.55;;;8.10;96.70;;;;;;5072860;28;20037;-50
2022/01/22 12:15:40;;;;;;;10.32;3.42;;;8.10;96.70;;;;;;5087162;28;20043;-50
2022/01/22 12:18:12;;;;;;;9.73;3.08;;;8.10;96.70;;;;;;5079233;28;20067;-49
2022/01/22 12:21:31;;;;;;;9.82;4.85;;;8.10;96.70;;;;;;5077982;28;20040;-50
2022/01/22 12:23:31;;;;;;;14.50;3.90;;;8.10;96.70;;;;;;5085864;28;20089;-50
2022/01/22 12:26:00;;;;;;;13.73;4.65;;;8.10;96.70;;;;;;5079301;28;20444;-50
2022/01/22 12:28:44;;;;;;;8.65;3.03;;;8.10;96.80;;;;;;5071513;28;20029;-49
2022/01/22 12:31:16;;;;;;;13.75;3.90;;;8.10;96.70;;;;;;5071805;28;20081;-49
2022/01/22 12:33:41;;;;;;;14.23;4.72;;;8.10;96.80;;;;;;5070127;28;20233;-49
2022/01/22 12:36:24;;;;;;;9.65;4.07;;;8.10;96.80;;;;;;5071652;28;20239;-50
2022/01/22 12:39:10;;;;;;;8.18;3.85;;;8.10;96.60;;;;;;5070746;28;20052;-49
2022/01/22 12:44:32;;;;;;;6.35;2.95;;;8.00;95.40;;;;;;5071472;28;20043;-49
2022/01/22 12:47:03;;;;;;;7.65;3.95;;;8.00;95.00;;;;;;5079920;28;20033;-49
2022/01/22 12:49:29;;;;;;;6.93;3.60;;;8.00;95.20;;;;;;5073710;28;20609;-49
2022/01/22 12:51:57;;;;;;;8.85;3.20;;;8.00;94.70;;;;;;5077739;28;20124;-49
2022/01/22 12:54:33;;;;;;;8.90;3.15;;;8.00;94.50;;;;;;5071761;28;20516;-49
2022/01/22 12:57:12;;;;;;;5.57;2.88;;;8.00;94.40;;;;;;5079780;28;20518;-49
2022/01/22 13:00:01;;;;;;;3.20;2.33;;;7.90;94.30;;;;;;5071465;28;20050;-48
2022/01/22 13:02:39;;;;;;;5.00;2.65;;;7.90;95.20;;;;;;5075929;28;20477;-48
2022/01/22 13:05:05;;;;;;;6.05;3.47;;;8.00;95.10;;;;;;5076453;28;20367;-48
2022/01/22 13:08:01;;;;;;;4.38;2.60;;;8.00;95.20;;;;;;5071598;28;20478;-48
2022/01/22 13:10:33;;;;;;;12.00;3.45;;;8.00;95.20;;;;;;5071892;28;20050;-48
2022/01/22 13:13:00;;;;;;;15.30;5.03;;;8.00;95.00;;;;;;5068826;28;20031;-48
2022/01/22 13:15:30;;;;;;;18.77;5.82;;;8.00;95.10;;;;;;5077019;28;20027;-48
2022/01/22 13:17:58;;;;;;;10.18;3.88;;;8.00;95.00;;;;;;5069211;28;20338;-48
2022/01/22 13:20:27;;;;;;;17.10;6.65;;;8.10;95.10;;;;;;5075222;28;20135;-49
2022/01/22 13:22:54;;;;;;;14.70;6.53;;;8.10;95.20;;;;;;5071435;28;20040;-48
2022/01/22 13:25:20;;;;;;;17.73;7.15;;;8.10;95.20;;;;;;5073067;28;20051;-48
2022/01/22 13:28:12;;;;;;;14.80;5.38;;;8.10;95.30;;;;;;5073545;28;20028;-49
2022/01/22 13:30:44;;;;;;;7.95;3.17;;;8.10;95.40;;;;;;5073971;28;20149;-48
2022/01/22 13:33:20;;;;;;;10.60;3.75;;;8.10;95.50;;;;;;5068414;28;20046;-48
2022/01/22 13:36:01;;;;;;;5.03;2.00;;;8.10;95.50;;;;;;5070514;28;20035;-48
2022/01/22 13:49:40;;;;;;;5.40;2.45;;;8.10;95.80;;;;;;5072707;28;20035;-49
2022/01/22 13:52:09;;;;;;;2.58;1.75;;;8.10;95.90;;;;;;5071073;28;20039;-48
2022/01/22 13:54:43;;;;;;;4.97;2.58;;;8.10;96.00;;;;;;5072584;28;20031;-49
2022/01/22 13:57:12;;;;;;;4.45;2.53;;;8.10;96.10;;;;;;5073425;28;20032;-49
2022/01/22 13:59:44;;;;;;;1.55;1.30;;;8.10;96.10;;;;;;5073043;28;20021;-48
2022/01/22 14:04:51;;;;;;;7.47;2.78;;;8.10;96.20;;;;;;5064744;28;20020;-49
2022/01/22 14:07:26;;;;;;;3.85;2.70;;;8.10;96.20;;;;;;5067756;28;20099;-48
2022/01/22 14:09:51;;;;;;;7.70;2.90;;;8.10;96.30;;;;;;5073237;28;20028;-49
2022/01/22 14:12:17;;;;;;;10.10;3.92;;;8.10;96.30;;;;;;5069892;28;20036;-48
2022/01/22 14:15:11;;;;;;;4.85;3.10;;;8.10;96.30;;;;;;5070286;28;20035;-49
2022/01/22 14:18:05;;;;;;;7.32;3.00;;;8.10;96.40;;;;;;5070732;28;20428;-49
2022/01/22 14:20:31;;;;;;;6.20;3.90;;;8.10;96.40;;;;;;5074120;28;20068;-48
2022/01/22 14:23:06;;;;;;;8.80;3.83;;;8.10;96.40;;;;;;5071133;28;20426;-48
2022/01/22 14:25:35;;;;;;;7.70;3.58;;;8.10;96.50;;;;;;5068835;28;20031;-49
2022/01/22 14:28:07;;;;;;;6.57;3.28;;;8.10;96.50;;;;;;5074747;28;20358;-48
2022/01/22 14:30:40;;;;;;;11.75;3.05;;;8.10;96.50;;;;;;5070040;28;20519;-48
2022/01/22 14:33:07;;;;;;;7.45;3.22;;;8.10;96.60;;;;;;5073189;28;20031;-49
2022/01/22 14:35:34;;;;;;;4.90;3.25;;;8.10;96.60;;;;;;5069820;28;20024;-49
2022/01/22 14:38:35;;;;;;;6.60;3.45;;;8.20;96.70;;;;;;5072278;28;20021;-48
2022/01/22 14:46:43;;;;;;;4.10;2.63;;;8.10;96.80;;;;;;5073157;28;20551;-49
2022/01/22 14:49:09;;;;;;;7.47;4.57;;;8.20;96.80;;;;;;5069076;28;20016;-48
2022/01/22 14:51:34;;;;;;;5.90;3.47;;;8.10;96.80;;;;;;5074247;28;20418;-48
2022/01/22 14:54:00;;;;;;;9.15;4.28;;;8.10;96.80;;;;;;5068106;28;20039;-48
2022/01/22 14:56:25;;;;;;;12.95;4.75;;;8.10;96.90;;;;;;5066575;28;20361;-49
2022/01/22 14:58:51;;;;;;;5.97;3.38;;;8.10;96.90;;;;;;5070560;28;20027;-49
2022/01/22 15:01:17;;;;;;;5.57;3.08;;;8.10;96.90;;;;;;5069711;28;20024;-48
2022/01/22 15:03:42;;;;;;;8.40;3.47;;;8.10;97.00;;;;;;5070764;28;20468;-49
2022/01/22 15:06:08;;;;;;;8.02;3.25;;;8.10;96.90;;;;;;5073374;28;20024;-49
2022/01/22 15:08:34;;;;;;;7.38;3.53;;;8.10;97.00;;;;;;5067632;28;20025;-49